sensor_id;sensor_type;location;lat;lon;timestamp;P1;durP1;ratioP1;P2;durP2;ratioP2
57113;SDS011;42994;51.606;9.988;2023-08-20T00:00:18;10.68;;;6.03;;
57113;SDS011;42994;51.606;9.988;2023-08-20T00:02:45;10.55;;;6.53;;
57113;SDS011;42994;51.606;9.988;2023-08-20T00:05:14;9.75;;;5.63;;
57113;SDS011;42994;51.606;9.988;2023-08-20T00:07:41;8.68;;;6.10;;
57113;SDS011;42994;51.606;9.988;2023-08-20T00:10:10;8.90;;;5.57;;
57113;SDS011;42994;51.606;9.988;2023-08-20T00:12:36;16.42;;;5.78;;
57113;SDS011;42994;51.606;9.988;2023-08-20T00:15:03;9.23;;;6.93;;
57113;SDS011;42994;51.606;9.988;2023-08-20T00:17:31;9.57;;;5.70;;
57113;SDS011;42994;51.606;9.988;2023-08-20T00:19:59;7.93;;;5.53;;
57113;SDS011;42994;51.606;9.988;2023-08-20T00:22:26;7.88;;;6.03;;
57113;SDS011;42994;51.606;9.988;2023-08-20T00:24:53;14.50;;;6.22;;
57113;SDS011;42994;51.606;9.988;2023-08-20T00:27:22;11.15;;;6.93;;
57113;SDS011;42994;51.606;9.988;2023-08-20T00:29:49;7.57;;;5.85;;
57113;SDS011;42994;51.606;9.988;2023-08-20T00:32:15;6.78;;;5.28;;
57113;SDS011;42994;51.606;9.988;2023-08-20T00:34:42;9.88;;;6.40;;
57113;SDS011;42994;51.606;9.988;2023-08-20T00:37:09;12.95;;;5.88;;
57113;SDS011;42994;51.606;9.988;2023-08-20T00:39:36;9.60;;;6.30;;
57113;SDS011;42994;51.606;9.988;2023-08-20T00:42:03;8.95;;;6.25;;
57113;SDS011;42994;51.606;9.988;2023-08-20T00:44:31;10.82;;;6.65;;
57113;SDS011;42994;51.606;9.988;2023-08-20T00:46:59;10.85;;;6.80;;
57113;SDS011;42994;51.606;9.988;2023-08-20T00:49:26;10.55;;;7.75;;
57113;SDS011;42994;51.606;9.988;2023-08-20T00:51:53;10.07;;;6.78;;
57113;SDS011;42994;51.606;9.988;2023-08-20T00:54:20;7.15;;;6.30;;
57113;SDS011;42994;51.606;9.988;2023-08-20T00:56:46;9.95;;;6.63;;
57113;SDS011;42994;51.606;9.988;2023-08-20T00:59:15;13.18;;;6.97;;
57113;SDS011;42994;51.606;9.988;2023-08-20T01:01:44;13.10;;;7.45;;
57113;SDS011;42994;51.606;9.988;2023-08-20T01:04:11;7.53;;;6.75;;
57113;SDS011;42994;51.606;9.988;2023-08-20T01:06:39;11.10;;;8.82;;
57113;SDS011;42994;51.606;9.988;2023-08-20T01:09:14;11.70;;;8.02;;
57113;SDS011;42994;51.606;9.988;2023-08-20T01:11:50;14.00;;;8.57;;
57113;SDS011;42994;51.606;9.988;2023-08-20T01:14:23;9.93;;;8.13;;
57113;SDS011;42994;51.606;9.988;2023-08-20T01:16:51;11.82;;;9.43;;
57113;SDS011;42994;51.606;9.988;2023-08-20T01:19:20;9.80;;;8.50;;
57113;SDS011;42994;51.606;9.988;2023-08-20T01:21:53;14.20;;;9.52;;
57113;SDS011;42994;51.606;9.988;2023-08-20T01:24:33;12.88;;;9.60;;
57113;SDS011;42994;51.606;9.988;2023-08-20T01:27:19;14.68;;;10.02;;
57113;SDS011;42994;51.606;9.988;2023-08-20T01:29:56;10.25;;;9.20;;
57113;SDS011;42994;51.606;9.988;2023-08-20T01:32:24;12.20;;;10.23;;
57113;SDS011;42994;51.606;9.988;2023-08-20T01:34:52;10.07;;;9.07;;
57113;SDS011;42994;51.606;9.988;2023-08-20T01:37:19;13.95;;;9.00;;
57113;SDS011;42994;51.606;9.988;2023-08-20T01:39:48;13.80;;;10.55;;
57113;SDS011;42994;51.606;9.988;2023-08-20T01:42:14;15.07;;;9.90;;
57113;SDS011;42994;51.606;9.988;2023-08-20T01:44:41;11.93;;;8.77;;
57113;SDS011;42994;51.606;9.988;2023-08-20T01:47:09;15.10;;;9.20;;
57113;SDS011;42994;51.606;9.988;2023-08-20T01:49:35;18.55;;;9.90;;
57113;SDS011;42994;51.606;9.988;2023-08-20T01:52:02;12.77;;;8.55;;
57113;SDS011;42994;51.606;9.988;2023-08-20T01:54:30;14.20;;;9.57;;
57113;SDS011;42994;51.606;9.988;2023-08-20T01:56:56;13.18;;;8.23;;
57113;SDS011;42994;51.606;9.988;2023-08-20T01:59:23;13.07;;;9.45;;
57113;SDS011;42994;51.606;9.988;2023-08-20T02:01:50;18.48;;;10.82;;
57113;SDS011;42994;51.606;9.988;2023-08-20T02:04:18;17.23;;;13.02;;
57113;SDS011;42994;51.606;9.988;2023-08-20T02:06:44;12.23;;;10.32;;
57113;SDS011;42994;51.606;9.988;2023-08-20T02:09:12;13.00;;;10.60;;
57113;SDS011;42994;51.606;9.988;2023-08-20T02:11:40;15.00;;;13.25;;
57113;SDS011;42994;51.606;9.988;2023-08-20T02:14:06;13.15;;;11.20;;
57113;SDS011;42994;51.606;9.988;2023-08-20T02:16:33;17.42;;;15.27;;
57113;SDS011;42994;51.606;9.988;2023-08-20T02:19:00;20.63;;;16.02;;
57113;SDS011;42994;51.606;9.988;2023-08-20T02:21:30;33.65;;;22.13;;
57113;SDS011;42994;51.606;9.988;2023-08-20T02:23:56;23.73;;;18.20;;
57113;SDS011;42994;51.606;9.988;2023-08-20T02:26:23;19.85;;;15.90;;
57113;SDS011;42994;51.606;9.988;2023-08-20T02:28:50;30.98;;;21.40;;
57113;SDS011;42994;51.606;9.988;2023-08-20T02:31:17;26.70;;;21.17;;
57113;SDS011;42994;51.606;9.988;2023-08-20T02:33:46;19.50;;;16.17;;
57113;SDS011;42994;51.606;9.988;2023-08-20T02:36:13;24.83;;;20.48;;
57113;SDS011;42994;51.606;9.988;2023-08-20T02:38:41;28.85;;;21.42;;
57113;SDS011;42994;51.606;9.988;2023-08-20T02:41:08;35.72;;;24.95;;
57113;SDS011;42994;51.606;9.988;2023-08-20T02:43:35;25.17;;;18.90;;
57113;SDS011;42994;51.606;9.988;2023-08-20T02:46:02;22.30;;;16.33;;
57113;SDS011;42994;51.606;9.988;2023-08-20T02:48:28;18.58;;;15.05;;
57113;SDS011;42994;51.606;9.988;2023-08-20T02:50:55;19.13;;;15.25;;
57113;SDS011;42994;51.606;9.988;2023-08-20T02:53:22;27.77;;;18.73;;
57113;SDS011;42994;51.606;9.988;2023-08-20T02:55:50;27.25;;;20.55;;
57113;SDS011;42994;51.606;9.988;2023-08-20T02:58:17;28.30;;;21.13;;
57113;SDS011;42994;51.606;9.988;2023-08-20T03:00:43;24.48;;;20.02;;
57113;SDS011;42994;51.606;9.988;2023-08-20T03:03:11;22.23;;;17.10;;
57113;SDS011;42994;51.606;9.988;2023-08-20T03:05:39;21.65;;;16.55;;
57113;SDS011;42994;51.606;9.988;2023-08-20T03:08:06;19.33;;;15.13;;
57113;SDS011;42994;51.606;9.988;2023-08-20T03:10:33;22.95;;;18.67;;
57113;SDS011;42994;51.606;9.988;2023-08-20T03:13:02;26.58;;;21.27;;
57113;SDS011;42994;51.606;9.988;2023-08-20T03:15:29;28.80;;;20.77;;
57113;SDS011;42994;51.606;9.988;2023-08-20T03:17:56;29.20;;;22.40;;
57113;SDS011;42994;51.606;9.988;2023-08-20T03:20:22;32.72;;;23.67;;
57113;SDS011;42994;51.606;9.988;2023-08-20T03:22:49;31.70;;;22.13;;
57113;SDS011;42994;51.606;9.988;2023-08-20T03:25:16;30.88;;;23.85;;
57113;SDS011;42994;51.606;9.988;2023-08-20T03:27:42;40.03;;;24.35;;
57113;SDS011;42994;51.606;9.988;2023-08-20T03:30:11;31.42;;;22.83;;
57113;SDS011;42994;51.606;9.988;2023-08-20T03:32:38;31.90;;;23.30;;
57113;SDS011;42994;51.606;9.988;2023-08-20T03:35:07;41.33;;;27.67;;
57113;SDS011;42994;51.606;9.988;2023-08-20T03:37:36;32.38;;;22.95;;
57113;SDS011;42994;51.606;9.988;2023-08-20T03:40:03;32.47;;;20.70;;
57113;SDS011;42994;51.606;9.988;2023-08-20T03:42:31;35.72;;;26.02;;
57113;SDS011;42994;51.606;9.988;2023-08-20T03:44:57;34.88;;;24.10;;
57113;SDS011;42994;51.606;9.988;2023-08-20T03:47:25;33.63;;;22.13;;
57113;SDS011;42994;51.606;9.988;2023-08-20T03:49:52;24.23;;;20.75;;
57113;SDS011;42994;51.606;9.988;2023-08-20T03:52:18;28.02;;;21.73;;
57113;SDS011;42994;51.606;9.988;2023-08-20T03:54:45;28.10;;;19.65;;
57113;SDS011;42994;51.606;9.988;2023-08-20T03:57:12;29.40;;;21.13;;
57113;SDS011;42994;51.606;9.988;2023-08-20T03:59:38;34.35;;;23.65;;
57113;SDS011;42994;51.606;9.988;2023-08-20T04:02:05;32.85;;;24.23;;
57113;SDS011;42994;51.606;9.988;2023-08-20T04:04:34;33.70;;;25.27;;
57113;SDS011;42994;51.606;9.988;2023-08-20T04:07:02;35.08;;;24.85;;
57113;SDS011;42994;51.606;9.988;2023-08-20T04:09:32;35.70;;;26.33;;
57113;SDS011;42994;51.606;9.988;2023-08-20T04:11:58;34.67;;;26.08;;
57113;SDS011;42994;51.606;9.988;2023-08-20T04:14:25;38.55;;;26.15;;
57113;SDS011;42994;51.606;9.988;2023-08-20T04:16:52;37.03;;;26.15;;
57113;SDS011;42994;51.606;9.988;2023-08-20T04:19:18;32.85;;;24.50;;
57113;SDS011;42994;51.606;9.988;2023-08-20T04:21:47;34.40;;;25.75;;
57113;SDS011;42994;51.606;9.988;2023-08-20T04:24:13;38.13;;;28.58;;
57113;SDS011;42994;51.606;9.988;2023-08-20T04:26:40;36.08;;;27.00;;
57113;SDS011;42994;51.606;9.988;2023-08-20T04:29:07;35.95;;;27.58;;
57113;SDS011;42994;51.606;9.988;2023-08-20T04:31:34;42.72;;;28.92;;
57113;SDS011;42994;51.606;9.988;2023-08-20T04:34:05;30.85;;;23.13;;
57113;SDS011;42994;51.606;9.988;2023-08-20T04:36:47;38.05;;;28.88;;
57113;SDS011;42994;51.606;9.988;2023-08-20T04:39:13;36.88;;;27.48;;
57113;SDS011;42994;51.606;9.988;2023-08-20T04:41:44;46.15;;;29.85;;
57113;SDS011;42994;51.606;9.988;2023-08-20T04:44:14;37.40;;;28.25;;
57113;SDS011;42994;51.606;9.988;2023-08-20T04:46:42;41.38;;;29.27;;
57113;SDS011;42994;51.606;9.988;2023-08-20T04:49:09;33.25;;;23.73;;
57113;SDS011;42994;51.606;9.988;2023-08-20T04:51:37;29.08;;;22.58;;
57113;SDS011;42994;51.606;9.988;2023-08-20T04:54:06;38.67;;;27.45;;
57113;SDS011;42994;51.606;9.988;2023-08-20T04:56:32;36.83;;;29.35;;
57113;SDS011;42994;51.606;9.988;2023-08-20T04:58:59;43.47;;;30.48;;
57113;SDS011;42994;51.606;9.988;2023-08-20T05:01:46;47.92;;;32.00;;
57113;SDS011;42994;51.606;9.988;2023-08-20T05:04:13;42.00;;;30.42;;
57113;SDS011;42994;51.606;9.988;2023-08-20T05:06:39;53.13;;;33.17;;
57113;SDS011;42994;51.606;9.988;2023-08-20T05:09:07;45.50;;;27.60;;
57113;SDS011;42994;51.606;9.988;2023-08-20T05:11:34;40.88;;;28.05;;
57113;SDS011;42994;51.606;9.988;2023-08-20T05:14:00;38.92;;;27.10;;
57113;SDS011;42994;51.606;9.988;2023-08-20T05:16:27;38.25;;;27.10;;
57113;SDS011;42994;51.606;9.988;2023-08-20T05:18:54;48.80;;;30.90;;
57113;SDS011;42994;51.606;9.988;2023-08-20T05:21:20;35.22;;;25.58;;
57113;SDS011;42994;51.606;9.988;2023-08-20T05:23:47;40.50;;;27.50;;
57113;SDS011;42994;51.606;9.988;2023-08-20T05:26:15;36.50;;;28.48;;
57113;SDS011;42994;51.606;9.988;2023-08-20T05:28:42;40.80;;;29.42;;
57113;SDS011;42994;51.606;9.988;2023-08-20T05:31:09;46.33;;;30.58;;
57113;SDS011;42994;51.606;9.988;2023-08-20T05:33:38;43.10;;;29.90;;
57113;SDS011;42994;51.606;9.988;2023-08-20T05:36:05;45.47;;;29.65;;
57113;SDS011;42994;51.606;9.988;2023-08-20T05:38:32;45.17;;;33.08;;
57113;SDS011;42994;51.606;9.988;2023-08-20T05:40:58;48.55;;;32.63;;
57113;SDS011;42994;51.606;9.988;2023-08-20T05:43:26;42.78;;;30.88;;
57113;SDS011;42994;51.606;9.988;2023-08-20T05:45:53;41.65;;;30.55;;
57113;SDS011;42994;51.606;9.988;2023-08-20T05:48:22;45.58;;;31.55;;
57113;SDS011;42994;51.606;9.988;2023-08-20T05:50:48;46.60;;;31.10;;
57113;SDS011;42994;51.606;9.988;2023-08-20T05:53:15;45.08;;;30.40;;
57113;SDS011;42994;51.606;9.988;2023-08-20T05:55:42;43.80;;;30.17;;
57113;SDS011;42994;51.606;9.988;2023-08-20T05:58:09;39.17;;;28.88;;
57113;SDS011;42994;51.606;9.988;2023-08-20T06:00:37;47.55;;;33.47;;
57113;SDS011;42994;51.606;9.988;2023-08-20T06:03:04;46.22;;;32.63;;
57113;SDS011;42994;51.606;9.988;2023-08-20T06:05:32;46.90;;;33.42;;
57113;SDS011;42994;51.606;9.988;2023-08-20T06:07:59;40.72;;;30.52;;
57113;SDS011;42994;51.606;9.988;2023-08-20T06:10:25;35.42;;;26.05;;
57113;SDS011;42994;51.606;9.988;2023-08-20T06:12:52;51.25;;;32.67;;
57113;SDS011;42994;51.606;9.988;2023-08-20T06:15:19;43.20;;;32.22;;
57113;SDS011;42994;51.606;9.988;2023-08-20T06:17:47;46.30;;;31.77;;
57113;SDS011;42994;51.606;9.988;2023-08-20T06:20:13;40.05;;;30.15;;
57113;SDS011;42994;51.606;9.988;2023-08-20T06:22:40;29.75;;;22.80;;
57113;SDS011;42994;51.606;9.988;2023-08-20T06:25:07;34.60;;;25.95;;
57113;SDS011;42994;51.606;9.988;2023-08-20T06:27:34;43.00;;;30.38;;
57113;SDS011;42994;51.606;9.988;2023-08-20T06:30:00;41.28;;;29.85;;
57113;SDS011;42994;51.606;9.988;2023-08-20T06:32:27;43.35;;;31.25;;
57113;SDS011;42994;51.606;9.988;2023-08-20T06:34:55;42.55;;;27.83;;
57113;SDS011;42994;51.606;9.988;2023-08-20T06:37:21;35.33;;;26.83;;
57113;SDS011;42994;51.606;9.988;2023-08-20T06:39:48;37.10;;;28.63;;
57113;SDS011;42994;51.606;9.988;2023-08-20T06:42:15;38.25;;;27.58;;
57113;SDS011;42994;51.606;9.988;2023-08-20T06:44:41;43.05;;;29.33;;
57113;SDS011;42994;51.606;9.988;2023-08-20T06:47:08;32.50;;;24.58;;
57113;SDS011;42994;51.606;9.988;2023-08-20T06:49:34;38.35;;;28.67;;
57113;SDS011;42994;51.606;9.988;2023-08-20T06:52:02;39.67;;;25.73;;
57113;SDS011;42994;51.606;9.988;2023-08-20T06:54:29;33.22;;;23.98;;
57113;SDS011;42994;51.606;9.988;2023-08-20T06:56:56;34.33;;;25.35;;
57113;SDS011;42994;51.606;9.988;2023-08-20T06:59:23;32.58;;;21.52;;
57113;SDS011;42994;51.606;9.988;2023-08-20T07:01:49;30.73;;;23.48;;
57113;SDS011;42994;51.606;9.988;2023-08-20T07:04:16;31.92;;;24.08;;
57113;SDS011;42994;51.606;9.988;2023-08-20T07:06:43;29.15;;;22.05;;
57113;SDS011;42994;51.606;9.988;2023-08-20T07:09:11;25.27;;;21.40;;
57113;SDS011;42994;51.606;9.988;2023-08-20T07:11:37;26.60;;;21.60;;
57113;SDS011;42994;51.606;9.988;2023-08-20T07:14:04;27.10;;;21.05;;
57113;SDS011;42994;51.606;9.988;2023-08-20T07:16:30;24.67;;;19.30;;
57113;SDS011;42994;51.606;9.988;2023-08-20T07:18:57;27.75;;;19.98;;
57113;SDS011;42994;51.606;9.988;2023-08-20T07:21:24;29.20;;;22.17;;
57113;SDS011;42994;51.606;9.988;2023-08-20T07:23:51;28.08;;;18.50;;
57113;SDS011;42994;51.606;9.988;2023-08-20T07:26:19;28.58;;;17.85;;
57113;SDS011;42994;51.606;9.988;2023-08-20T07:28:45;24.73;;;21.63;;
57113;SDS011;42994;51.606;9.988;2023-08-20T07:31:23;23.90;;;18.10;;
57113;SDS011;42994;51.606;9.988;2023-08-20T07:33:50;26.75;;;19.02;;
57113;SDS011;42994;51.606;9.988;2023-08-20T07:36:17;27.27;;;20.13;;
57113;SDS011;42994;51.606;9.988;2023-08-20T07:38:47;26.80;;;19.58;;
57113;SDS011;42994;51.606;9.988;2023-08-20T07:41:14;30.73;;;22.42;;
57113;SDS011;42994;51.606;9.988;2023-08-20T07:43:42;27.27;;;18.00;;
57113;SDS011;42994;51.606;9.988;2023-08-20T07:46:09;24.63;;;17.52;;
57113;SDS011;42994;51.606;9.988;2023-08-20T07:48:36;22.48;;;17.08;;
57113;SDS011;42994;51.606;9.988;2023-08-20T07:51:02;23.40;;;18.45;;
57113;SDS011;42994;51.606;9.988;2023-08-20T07:53:29;20.70;;;17.52;;
57113;SDS011;42994;51.606;9.988;2023-08-20T07:55:56;24.30;;;17.60;;
57113;SDS011;42994;51.606;9.988;2023-08-20T07:58:23;21.35;;;17.17;;
57113;SDS011;42994;51.606;9.988;2023-08-20T08:00:51;20.13;;;15.10;;
57113;SDS011;42994;51.606;9.988;2023-08-20T08:03:18;19.98;;;17.38;;
57113;SDS011;42994;51.606;9.988;2023-08-20T08:05:45;23.25;;;17.50;;
57113;SDS011;42994;51.606;9.988;2023-08-20T08:08:13;23.48;;;17.35;;
57113;SDS011;42994;51.606;9.988;2023-08-20T08:10:40;26.20;;;19.75;;
57113;SDS011;42994;51.606;9.988;2023-08-20T08:13:09;28.02;;;18.95;;
57113;SDS011;42994;51.606;9.988;2023-08-20T08:15:36;22.02;;;19.30;;
57113;SDS011;42994;51.606;9.988;2023-08-20T08:18:04;18.73;;;16.23;;
57113;SDS011;42994;51.606;9.988;2023-08-20T08:20:31;23.23;;;15.85;;
57113;SDS011;42994;51.606;9.988;2023-08-20T08:22:58;16.83;;;14.80;;
57113;SDS011;42994;51.606;9.988;2023-08-20T08:25:24;19.90;;;16.67;;
57113;SDS011;42994;51.606;9.988;2023-08-20T08:27:51;14.50;;;13.00;;
57113;SDS011;42994;51.606;9.988;2023-08-20T08:30:18;14.70;;;12.27;;
57113;SDS011;42994;51.606;9.988;2023-08-20T08:32:44;18.80;;;13.00;;
57113;SDS011;42994;51.606;9.988;2023-08-20T08:35:12;15.13;;;12.65;;
57113;SDS011;42994;51.606;9.988;2023-08-20T08:37:39;17.88;;;12.35;;
57113;SDS011;42994;51.606;9.988;2023-08-20T08:40:06;15.73;;;12.07;;
57113;SDS011;42994;51.606;9.988;2023-08-20T08:42:34;15.55;;;11.43;;
57113;SDS011;42994;51.606;9.988;2023-08-20T08:45:01;14.23;;;12.25;;
57113;SDS011;42994;51.606;9.988;2023-08-20T08:47:29;13.27;;;11.88;;
57113;SDS011;42994;51.606;9.988;2023-08-20T08:49:56;16.50;;;12.95;;
57113;SDS011;42994;51.606;9.988;2023-08-20T08:52:24;14.63;;;11.82;;
57113;SDS011;42994;51.606;9.988;2023-08-20T08:54:52;14.93;;;11.93;;
57113;SDS011;42994;51.606;9.988;2023-08-20T08:57:19;13.07;;;11.77;;
57113;SDS011;42994;51.606;9.988;2023-08-20T08:59:45;14.15;;;11.75;;
57113;SDS011;42994;51.606;9.988;2023-08-20T09:02:12;15.38;;;12.52;;
57113;SDS011;42994;51.606;9.988;2023-08-20T09:04:39;13.68;;;12.18;;
57113;SDS011;42994;51.606;9.988;2023-08-20T09:07:10;16.77;;;13.43;;
57113;SDS011;42994;51.606;9.988;2023-08-20T09:09:42;14.43;;;12.27;;
57113;SDS011;42994;51.606;9.988;2023-08-20T09:12:13;15.07;;;12.43;;
57113;SDS011;42994;51.606;9.988;2023-08-20T09:14:42;13.55;;;11.70;;
57113;SDS011;42994;51.606;9.988;2023-08-20T09:17:11;14.00;;;12.55;;
57113;SDS011;42994;51.606;9.988;2023-08-20T09:19:38;13.57;;;11.57;;
57113;SDS011;42994;51.606;9.988;2023-08-20T09:22:04;14.07;;;12.38;;
57113;SDS011;42994;51.606;9.988;2023-08-20T09:24:32;18.95;;;12.38;;
57113;SDS011;42994;51.606;9.988;2023-08-20T09:27:01;13.40;;;10.90;;
57113;SDS011;42994;51.606;9.988;2023-08-20T09:29:31;13.23;;;11.85;;
57113;SDS011;42994;51.606;9.988;2023-08-20T09:32:00;12.35;;;11.05;;
57113;SDS011;42994;51.606;9.988;2023-08-20T09:34:35;14.18;;;12.57;;
57113;SDS011;42994;51.606;9.988;2023-08-20T09:37:03;15.20;;;12.10;;
57113;SDS011;42994;51.606;9.988;2023-08-20T09:39:30;13.38;;;11.30;;
57113;SDS011;42994;51.606;9.988;2023-08-20T09:41:56;12.02;;;10.45;;
57113;SDS011;42994;51.606;9.988;2023-08-20T09:44:27;11.93;;;10.73;;
57113;SDS011;42994;51.606;9.988;2023-08-20T09:46:57;12.93;;;11.63;;
57113;SDS011;42994;51.606;9.988;2023-08-20T09:49:24;18.45;;;10.50;;
57113;SDS011;42994;51.606;9.988;2023-08-20T09:51:56;12.98;;;11.63;;
57113;SDS011;42994;51.606;9.988;2023-08-20T09:54:26;13.43;;;10.20;;
57113;SDS011;42994;51.606;9.988;2023-08-20T09:57:01;11.25;;;10.13;;
57113;SDS011;42994;51.606;9.988;2023-08-20T09:59:31;14.35;;;9.82;;
57113;SDS011;42994;51.606;9.988;2023-08-20T10:04:27;10.98;;;9.35;;
57113;SDS011;42994;51.606;9.988;2023-08-20T10:06:56;11.70;;;10.60;;
57113;SDS011;42994;51.606;9.988;2023-08-20T10:09:24;13.00;;;10.48;;
57113;SDS011;42994;51.606;9.988;2023-08-20T10:11:52;11.23;;;10.07;;
57113;SDS011;42994;51.606;9.988;2023-08-20T10:14:19;10.38;;;9.43;;
57113;SDS011;42994;51.606;9.988;2023-08-20T10:16:47;11.00;;;9.90;;
57113;SDS011;42994;51.606;9.988;2023-08-20T10:19:14;11.52;;;10.43;;
57113;SDS011;42994;51.606;9.988;2023-08-20T10:21:43;11.80;;;10.38;;
57113;SDS011;42994;51.606;9.988;2023-08-20T10:24:12;12.93;;;10.85;;
57113;SDS011;42994;51.606;9.988;2023-08-20T10:26:44;12.15;;;10.77;;
57113;SDS011;42994;51.606;9.988;2023-08-20T10:32:04;12.85;;;10.40;;
57113;SDS011;42994;51.606;9.988;2023-08-20T10:34:32;12.10;;;10.90;;
57113;SDS011;42994;51.606;9.988;2023-08-20T10:37:01;11.88;;;10.25;;
57113;SDS011;42994;51.606;9.988;2023-08-20T10:39:28;12.82;;;10.07;;
57113;SDS011;42994;51.606;9.988;2023-08-20T10:42:07;11.82;;;10.73;;
57113;SDS011;42994;51.606;9.988;2023-08-20T10:47:24;12.05;;;10.85;;
57113;SDS011;42994;51.606;9.988;2023-08-20T10:49:51;12.35;;;11.10;;
57113;SDS011;42994;51.606;9.988;2023-08-20T10:52:18;13.27;;;10.05;;
57113;SDS011;42994;51.606;9.988;2023-08-20T10:54:45;11.73;;;9.48;;
57113;SDS011;42994;51.606;9.988;2023-08-20T10:57:11;11.02;;;9.93;;
57113;SDS011;42994;51.606;9.988;2023-08-20T10:59:39;15.27;;;10.43;;
57113;SDS011;42994;51.606;9.988;2023-08-20T11:02:07;10.57;;;9.35;;
57113;SDS011;42994;51.606;9.988;2023-08-20T11:04:41;9.43;;;8.52;;
57113;SDS011;42994;51.606;9.988;2023-08-20T11:07:08;10.82;;;9.15;;
57113;SDS011;42994;51.606;9.988;2023-08-20T11:09:36;9.32;;;8.52;;
57113;SDS011;42994;51.606;9.988;2023-08-20T11:12:05;9.13;;;8.32;;
57113;SDS011;42994;51.606;9.988;2023-08-20T11:14:32;9.65;;;8.80;;
57113;SDS011;42994;51.606;9.988;2023-08-20T11:17:01;9.35;;;8.20;;
57113;SDS011;42994;51.606;9.988;2023-08-20T11:19:28;9.93;;;8.98;;
57113;SDS011;42994;51.606;9.988;2023-08-20T11:21:56;12.82;;;9.60;;
57113;SDS011;42994;51.606;9.988;2023-08-20T11:24:23;11.23;;;9.65;;
57113;SDS011;42994;51.606;9.988;2023-08-20T11:26:54;9.75;;;8.85;;
57113;SDS011;42994;51.606;9.988;2023-08-20T11:29:21;10.00;;;9.02;;
57113;SDS011;42994;51.606;9.988;2023-08-20T11:31:48;11.38;;;9.43;;
57113;SDS011;42994;51.606;9.988;2023-08-20T11:34:15;11.32;;;10.18;;
57113;SDS011;42994;51.606;9.988;2023-08-20T11:36:42;11.50;;;9.75;;
57113;SDS011;42994;51.606;9.988;2023-08-20T11:39:11;12.38;;;9.05;;
57113;SDS011;42994;51.606;9.988;2023-08-20T11:41:38;10.23;;;8.88;;
57113;SDS011;42994;51.606;9.988;2023-08-20T11:44:08;12.80;;;8.95;;
57113;SDS011;42994;51.606;9.988;2023-08-20T11:46:41;11.15;;;8.10;;
57113;SDS011;42994;51.606;9.988;2023-08-20T11:49:09;9.52;;;8.07;;
57113;SDS011;42994;51.606;9.988;2023-08-20T11:51:37;9.50;;;8.57;;
57113;SDS011;42994;51.606;9.988;2023-08-20T11:54:05;9.38;;;8.30;;
57113;SDS011;42994;51.606;9.988;2023-08-20T11:56:33;9.52;;;7.78;;
57113;SDS011;42994;51.606;9.988;2023-08-20T11:59:01;9.85;;;8.85;;
57113;SDS011;42994;51.606;9.988;2023-08-20T12:01:29;11.50;;;9.57;;
57113;SDS011;42994;51.606;9.988;2023-08-20T12:03:59;10.77;;;9.13;;
57113;SDS011;42994;51.606;9.988;2023-08-20T12:06:26;10.25;;;9.15;;
57113;SDS011;42994;51.606;9.988;2023-08-20T12:08:55;10.10;;;9.10;;
57113;SDS011;42994;51.606;9.988;2023-08-20T12:11:23;9.48;;;8.57;;
57113;SDS011;42994;51.606;9.988;2023-08-20T12:13:52;9.95;;;8.60;;
57113;SDS011;42994;51.606;9.988;2023-08-20T12:16:20;9.90;;;8.60;;
57113;SDS011;42994;51.606;9.988;2023-08-20T12:18:48;9.70;;;8.00;;
57113;SDS011;42994;51.606;9.988;2023-08-20T12:21:15;9.73;;;8.75;;
57113;SDS011;42994;51.606;9.988;2023-08-20T12:23:42;10.27;;;8.23;;
57113;SDS011;42994;51.606;9.988;2023-08-20T12:26:09;9.35;;;8.45;;
57113;SDS011;42994;51.606;9.988;2023-08-20T12:28:35;7.82;;;7.13;;
57113;SDS011;42994;51.606;9.988;2023-08-20T12:31:03;7.55;;;6.85;;
57113;SDS011;42994;51.606;9.988;2023-08-20T12:33:30;9.15;;;7.55;;
57113;SDS011;42994;51.606;9.988;2023-08-20T12:35:58;10.65;;;7.97;;
57113;SDS011;42994;51.606;9.988;2023-08-20T12:38:24;9.40;;;7.90;;
57113;SDS011;42994;51.606;9.988;2023-08-20T12:40:51;10.73;;;8.00;;
57113;SDS011;42994;51.606;9.988;2023-08-20T12:43:17;9.68;;;8.32;;
57113;SDS011;42994;51.606;9.988;2023-08-20T12:45:44;9.48;;;8.02;;
57113;SDS011;42994;51.606;9.988;2023-08-20T12:48:12;9.25;;;8.20;;
57113;SDS011;42994;51.606;9.988;2023-08-20T12:50:39;10.10;;;8.30;;
57113;SDS011;42994;51.606;9.988;2023-08-20T12:53:05;8.80;;;7.90;;
57113;SDS011;42994;51.606;9.988;2023-08-20T12:55:32;12.52;;;7.43;;
57113;SDS011;42994;51.606;9.988;2023-08-20T12:57:59;8.13;;;7.20;;
57113;SDS011;42994;51.606;9.988;2023-08-20T13:00:26;8.65;;;7.10;;
57113;SDS011;42994;51.606;9.988;2023-08-20T13:02:53;8.98;;;6.78;;
57113;SDS011;42994;51.606;9.988;2023-08-20T13:05:23;9.02;;;6.35;;
57113;SDS011;42994;51.606;9.988;2023-08-20T13:07:50;8.77;;;6.80;;
57113;SDS011;42994;51.606;9.988;2023-08-20T13:10:18;7.55;;;6.75;;
57113;SDS011;42994;51.606;9.988;2023-08-20T13:12:47;7.63;;;6.40;;
57113;SDS011;42994;51.606;9.988;2023-08-20T13:15:15;7.65;;;6.43;;
57113;SDS011;42994;51.606;9.988;2023-08-20T13:17:43;6.65;;;6.05;;
57113;SDS011;42994;51.606;9.988;2023-08-20T13:20:11;10.25;;;6.40;;
57113;SDS011;42994;51.606;9.988;2023-08-20T13:22:39;11.45;;;7.30;;
57113;SDS011;42994;51.606;9.988;2023-08-20T13:25:06;8.20;;;6.82;;
57113;SDS011;42994;51.606;9.988;2023-08-20T13:27:34;7.40;;;6.70;;
57113;SDS011;42994;51.606;9.988;2023-08-20T13:30:00;7.10;;;6.40;;
57113;SDS011;42994;51.606;9.988;2023-08-20T13:32:28;7.32;;;6.47;;
57113;SDS011;42994;51.606;9.988;2023-08-20T13:34:54;7.45;;;6.75;;
57113;SDS011;42994;51.606;9.988;2023-08-20T13:37:21;5.88;;;5.32;;
57113;SDS011;42994;51.606;9.988;2023-08-20T13:39:49;8.88;;;6.22;;
57113;SDS011;42994;51.606;9.988;2023-08-20T13:42:15;7.75;;;6.13;;
57113;SDS011;42994;51.606;9.988;2023-08-20T13:44:42;6.50;;;5.90;;
57113;SDS011;42994;51.606;9.988;2023-08-20T13:47:09;7.13;;;6.40;;
57113;SDS011;42994;51.606;9.988;2023-08-20T13:49:35;7.35;;;5.38;;
57113;SDS011;42994;51.606;9.988;2023-08-20T13:52:02;7.03;;;6.32;;
57113;SDS011;42994;51.606;9.988;2023-08-20T13:54:29;9.27;;;4.88;;
57113;SDS011;42994;51.606;9.988;2023-08-20T13:56:57;8.48;;;5.20;;
57113;SDS011;42994;51.606;9.988;2023-08-20T13:59:23;14.90;;;6.00;;
57113;SDS011;42994;51.606;9.988;2023-08-20T14:01:50;8.32;;;5.55;;
57113;SDS011;42994;51.606;9.988;2023-08-20T14:04:17;7.80;;;6.28;;
57113;SDS011;42994;51.606;9.988;2023-08-20T14:06:43;13.75;;;5.20;;
57113;SDS011;42994;51.606;9.988;2023-08-20T14:09:10;6.05;;;5.20;;
57113;SDS011;42994;51.606;9.988;2023-08-20T14:11:37;5.88;;;5.32;;
57113;SDS011;42994;51.606;9.988;2023-08-20T14:14:05;5.03;;;4.60;;
57113;SDS011;42994;51.606;9.988;2023-08-20T14:16:32;6.13;;;5.38;;
57113;SDS011;42994;51.606;9.988;2023-08-20T14:18:58;5.57;;;4.78;;
57113;SDS011;42994;51.606;9.988;2023-08-20T14:21:25;8.65;;;5.82;;
57113;SDS011;42994;51.606;9.988;2023-08-20T14:23:52;5.15;;;4.75;;
57113;SDS011;42994;51.606;9.988;2023-08-20T14:26:18;11.50;;;5.40;;
57113;SDS011;42994;51.606;9.988;2023-08-20T14:28:45;5.47;;;4.95;;
57113;SDS011;42994;51.606;9.988;2023-08-20T14:31:13;7.28;;;5.60;;
57113;SDS011;42994;51.606;9.988;2023-08-20T14:33:40;8.88;;;6.28;;
57113;SDS011;42994;51.606;9.988;2023-08-20T14:36:06;7.60;;;5.97;;
57113;SDS011;42994;51.606;9.988;2023-08-20T14:38:33;7.13;;;6.38;;